Time;durP1;ratioP1;P1;durP2;ratioP2;P2;SDS_P1;SDS_P2;PMS_P1;PMS_P2;Temp;Humidity;BMP_temperature;BMP_pressure;BME280_temperature;BME280_humidity;BME280_pressure;Samples;Min_cycle;Max_cycle;Signal;HPM_P1;HPM_P2
2023/10/30 00:01:48;;;;;;;1.17;0.40;;;17.70;74.90;;;;;;2486164;55;21419;-86
2023/10/30 00:04:14;;;;;;;0.57;0.22;;;17.70;75.00;;;;;;2259051;55;21034;-86
2023/10/30 00:06:41;;;;;;;0.37;0.20;;;17.70;74.90;;;;;;2485072;55;20966;-86
2023/10/30 00:09:07;;;;;;;0.62;0.20;;;17.70;74.90;;;;;;2258022;55;20981;-86
2023/10/30 00:11:33;;;;;;;0.60;0.20;;;17.70;75.00;;;;;;2257968;56;21010;-85
2023/10/30 00:14:00;;;;;;;2.33;0.40;;;17.70;75.00;;;;;;2258758;55;21636;-85
2023/10/30 00:16:27;;;;;;;0.52;0.30;;;17.70;74.90;;;;;;2258629;55;21522;-87
2023/10/30 00:18:54;;;;;;;0.60;0.20;;;17.70;74.90;;;;;;2258460;55;20982;-86
2023/10/30 00:21:21;;;;;;;0.80;0.30;;;17.70;75.00;;;;;;2488116;55;21306;-85
2023/10/30 00:23:47;;;;;;;0.77;0.40;;;17.70;75.00;;;;;;2259049;55;21891;-85
2023/10/30 00:26:13;;;;;;;0.90;0.35;;;17.70;75.00;;;;;;2256434;55;21002;-85
2023/10/30 00:28:39;;;;;;;1.83;0.47;;;17.70;75.20;;;;;;2257556;55;20926;-85
2023/10/30 00:31:06;;;;;;;0.50;0.20;;;17.60;74.90;;;;;;2487380;54;21518;-86
2023/10/30 00:33:32;;;;;;;0.70;0.30;;;17.60;74.90;;;;;;2257986;56;21033;-85
2023/10/30 00:35:58;;;;;;;0.30;0.20;;;17.60;74.80;;;;;;2487546;55;20961;-85
2023/10/30 00:38:25;;;;;;;0.20;0.20;;;17.60;74.60;;;;;;2258747;55;21013;-85
2023/10/30 00:40:51;;;;;;;0.50;0.22;;;17.60;74.50;;;;;;2257437;55;21509;-84
2023/10/30 00:43:18;;;;;;;1.65;0.65;;;17.60;74.50;;;;;;2259239;56;21006;-85
2023/10/30 00:45:45;;;;;;;2.03;0.35;;;17.60;74.70;;;;;;2485865;55;21821;-85
2023/10/30 00:48:11;;;;;;;0.85;0.30;;;17.60;74.80;;;;;;2258883;55;21041;-86
2023/10/30 00:50:37;;;;;;;0.43;0.22;;;17.50;74.70;;;;;;2486358;55;21027;-85
2023/10/30 00:53:04;;;;;;;1.15;0.22;;;17.60;75.00;;;;;;2487094;54;21129;-84
2023/10/30 00:55:30;;;;;;;1.27;0.43;;;17.50;74.80;;;;;;2486353;55;20962;-85
2023/10/30 00:57:56;;;;;;;0.75;0.30;;;17.50;75.00;;;;;;2486305;54;20958;-85
2023/10/30 01:00:23;;;;;;;0.80;0.30;;;17.50;74.80;;;;;;2259103;55;20906;-84
2023/10/30 01:02:49;;;;;;;0.32;0.30;;;17.50;74.90;;;;;;2257645;55;21026;-84
2023/10/30 01:05:15;;;;;;;1.12;0.47;;;17.50;75.00;;;;;;2487842;54;21007;-85
2023/10/30 01:07:41;;;;;;;0.60;0.28;;;17.50;75.00;;;;;;2250244;55;20947;-85
2023/10/30 01:10:08;;;;;;;0.50;0.20;;;17.50;75.00;;;;;;2484615;55;20954;-85
2023/10/30 01:12:34;;;;;;;0.20;0.15;;;17.50;75.00;;;;;;2255369;55;21046;-85
2023/10/30 01:15:01;;;;;;;0.47;0.20;;;17.50;75.00;;;;;;2257309;55;21317;-84
2023/10/30 01:17:27;;;;;;;0.22;0.20;;;17.50;75.00;;;;;;2455675;55;21038;-84
2023/10/30 01:19:53;;;;;;;0.35;0.10;;;17.60;75.10;;;;;;2256344;55;22277;-85
2023/10/30 01:22:20;;;;;;;1.25;0.10;;;17.50;75.00;;;;;;2483088;55;20946;-85
2023/10/30 01:24:46;;;;;;;0.32;0.10;;;17.50;75.10;;;;;;2483905;54;20970;-85
2023/10/30 01:27:12;;;;;;;0.35;0.10;;;17.50;75.00;;;;;;2484851;54;20939;-85
2023/10/30 01:29:38;;;;;;;0.22;0.08;;;17.50;75.00;;;;;;2255231;55;20979;-84
2023/10/30 01:32:05;;;;;;;0.20;0.10;;;17.50;75.00;;;;;;2483809;55;20946;-84
2023/10/30 01:34:31;;;;;;;0.10;0.10;;;17.50;75.00;;;;;;2484862;55;20966;-85
2023/10/30 01:36:58;;;;;;;0.52;0.20;;;17.50;75.00;;;;;;2255748;55;22037;-85
2023/10/30 01:39:24;;;;;;;0.43;0.20;;;17.50;75.00;;;;;;2257079;55;21151;-86
2023/10/30 01:41:50;;;;;;;0.43;0.15;;;17.50;74.90;;;;;;2483842;55;21499;-85
2023/10/30 01:44:16;;;;;;;2.42;0.30;;;17.40;74.90;;;;;;2237930;55;1256736;-85
2023/10/30 01:46:43;;;;;;;0.17;0.10;;;17.40;74.90;;;;;;2255076;55;20931;-85
2023/10/30 01:49:10;;;;;;;0.17;0.10;;;17.50;75.00;;;;;;2485562;54;21022;-85
2023/10/30 01:51:36;;;;;;;0.32;0.10;;;17.40;75.00;;;;;;2255957;55;20974;-85
2023/10/30 01:54:03;;;;;;;0.45;0.10;;;17.40;75.00;;;;;;2257179;56;21935;-85
2023/10/30 01:56:30;;;;;;;0.32;0.20;;;17.40;75.00;;;;;;2486078;55;20971;-85
2023/10/30 01:58:56;;;;;;;0.77;0.20;;;17.40;75.00;;;;;;2484035;55;21385;-85
2023/10/30 02:01:23;;;;;;;0.70;0.10;;;17.40;75.00;;;;;;2257692;55;21114;-84
2023/10/30 02:03:51;;;;;;;0.40;0.10;;;17.40;75.00;;;;;;2256487;55;21722;-84
2023/10/30 02:06:17;;;;;;;2.05;0.20;;;17.40;74.90;;;;;;2484628;55;21026;-84
2023/10/30 02:08:43;;;;;;;0.57;0.20;;;17.40;74.80;;;;;;2254895;55;21765;-85
2023/10/30 02:11:10;;;;;;;0.20;0.10;;;17.50;75.00;;;;;;2485917;55;21030;-84
2023/10/30 02:13:36;;;;;;;0.65;0.30;;;17.40;74.90;;;;;;2257128;55;21879;-85
2023/10/30 02:16:04;;;;;;;0.20;0.10;;;17.40;74.90;;;;;;2484825;54;21818;-85
2023/10/30 02:18:30;;;;;;;0.20;0.10;;;17.40;74.80;;;;;;2256401;55;21050;-85
2023/10/30 02:20:56;;;;;;;0.45;0.20;;;17.40;74.80;;;;;;2255348;55;21009;-85
2023/10/30 02:23:22;;;;;;;0.28;0.20;;;17.40;74.80;;;;;;2257703;55;21062;-84
2023/10/30 02:25:49;;;;;;;1.17;0.20;;;17.40;74.70;;;;;;2256367;55;21453;-85
2023/10/30 02:28:16;;;;;;;0.80;0.20;;;17.30;74.60;;;;;;2484689;54;21494;-85
2023/10/30 02:30:42;;;;;;;0.20;0.10;;;17.40;74.70;;;;;;2256078;55;21018;-84
2023/10/30 02:33:08;;;;;;;0.55;0.20;;;17.30;74.60;;;;;;2257547;55;21030;-85
2023/10/30 02:35:35;;;;;;;0.30;0.20;;;17.30;74.60;;;;;;2485019;54;20978;-85
2023/10/30 02:38:01;;;;;;;0.22;0.20;;;17.30;74.60;;;;;;2484230;55;20982;-86
2023/10/30 02:40:27;;;;;;;2.20;0.22;;;17.30;74.70;;;;;;2258914;55;21033;-85
2023/10/30 02:42:53;;;;;;;1.30;0.20;;;17.30;74.70;;;;;;2256205;55;22583;-84
2023/10/30 02:45:20;;;;;;;0.28;0.20;;;17.30;74.80;;;;;;2257098;55;20947;-84
2023/10/30 02:47:46;;;;;;;0.47;0.20;;;17.20;74.70;;;;;;2483862;54;20954;-86
2023/10/30 02:50:15;;;;;;;0.30;0.17;;;17.30;74.80;;;;;;2257233;55;21875;-85
2023/10/30 02:52:41;;;;;;;0.40;0.28;;;17.20;74.70;;;;;;2485313;55;21070;-85
2023/10/30 02:55:09;;;;;;;0.28;0.20;;;17.20;74.40;;;;;;2257559;55;21711;-84
2023/10/30 02:57:35;;;;;;;0.37;0.10;;;17.30;74.70;;;;;;2480750;54;20962;-85
2023/10/30 03:00:02;;;;;;;0.70;0.22;;;17.20;74.60;;;;;;2484067;55;21672;-85
2023/10/30 03:02:28;;;;;;;0.68;0.20;;;17.20;74.60;;;;;;2256779;55;20927;-85
2023/10/30 03:04:55;;;;;;;0.85;0.20;;;17.20;74.60;;;;;;2255597;55;21050;-85
2023/10/30 03:07:21;;;;;;;1.15;0.10;;;17.20;74.70;;;;;;2256235;55;20943;-85
2023/10/30 03:09:48;;;;;;;2.12;0.15;;;17.20;74.70;;;;;;2257882;55;21014;-85
2023/10/30 03:12:14;;;;;;;1.83;0.30;;;17.20;74.70;;;;;;2258719;55;21022;-84
2023/10/30 03:14:40;;;;;;;0.98;0.30;;;17.20;74.70;;;;;;2486493;55;21831;-84
2023/10/30 03:17:07;;;;;;;0.50;0.20;;;17.10;74.60;;;;;;2486635;54;21042;-84
2023/10/30 03:19:33;;;;;;;0.70;0.20;;;17.10;74.60;;;;;;2488189;55;21022;-84
2023/10/30 03:21:59;;;;;;;0.32;0.20;;;17.10;74.40;;;;;;2258703;55;21007;-85
2023/10/30 03:24:26;;;;;;;0.75;0.30;;;17.10;74.50;;;;;;2259428;55;20943;-87
2023/10/30 03:26:52;;;;;;;0.85;0.28;;;17.10;74.60;;;;;;2485971;54;21007;-85
2023/10/30 03:29:18;;;;;;;0.47;0.17;;;17.10;74.60;;;;;;2487012;55;21022;-84
2023/10/30 03:31:45;;;;;;;0.70;0.30;;;17.10;74.60;;;;;;2486669;54;20931;-84
2023/10/30 03:34:11;;;;;;;0.52;0.25;;;17.10;74.60;;;;;;2487539;55;21044;-85
2023/10/30 03:36:38;;;;;;;1.25;0.28;;;17.10;74.80;;;;;;2486717;54;21038;-84
2023/10/30 03:39:04;;;;;;;0.77;0.25;;;17.00;74.80;;;;;;2485893;55;21010;-85
2023/10/30 03:41:31;;;;;;;1.25;0.20;;;17.00;74.80;;;;;;2258808;55;21030;-84
2023/10/30 03:43:57;;;;;;;0.77;0.28;;;17.00;74.80;;;;;;2257055;55;21735;-84
2023/10/30 03:46:24;;;;;;;0.70;0.62;;;17.10;74.90;;;;;;2258543;55;21014;-85
2023/10/30 03:48:51;;;;;;;1.02;0.32;;;17.20;75.10;;;;;;2485486;54;21355;-83
2023/10/30 03:51:17;;;;;;;1.30;0.40;;;17.10;74.90;;;;;;2258895;55;21103;-84
2023/10/30 03:53:43;;;;;;;0.32;0.25;;;17.10;74.80;;;;;;2486730;55;21392;-84
2023/10/30 03:56:09;;;;;;;0.60;0.20;;;17.10;74.90;;;;;;2258892;56;20938;-84
2023/10/30 03:58:36;;;;;;;0.65;0.30;;;17.00;74.70;;;;;;2258703;55;20987;-84
2023/10/30 04:01:08;;;;;;;1.70;0.20;;;17.20;74.80;;;;;;2258581;55;21019;-86
2023/10/30 04:03:34;;;;;;;0.57;0.20;;;17.00;74.50;;;;;;2487954;55;21027;-84
2023/10/30 04:06:04;;;;;;;1.00;0.40;;;17.00;74.70;;;;;;2486994;54;21043;-85
2023/10/30 04:08:30;;;;;;;1.33;0.30;;;17.00;74.70;;;;;;2488258;55;21121;-85
2023/10/30 04:10:56;;;;;;;1.30;0.30;;;17.00;74.80;;;;;;2258100;55;21070;-85
2023/10/30 04:13:23;;;;;;;4.10;0.40;;;17.00;74.80;;;;;;2487013;55;20978;-84
2023/10/30 04:15:49;;;;;;;0.70;0.30;;;17.00;74.70;;;;;;2487197;55;21273;-85
2023/10/30 04:18:15;;;;;;;1.55;0.40;;;17.00;74.50;;;;;;2258469;55;20985;-84
2023/10/30 04:20:41;;;;;;;0.50;0.20;;;17.00;74.60;;;;;;2258675;55;21079;-85
2023/10/30 04:23:08;;;;;;;0.22;0.20;;;17.00;74.70;;;;;;2487225;54;21286;-85
2023/10/30 04:25:34;;;;;;;1.73;0.37;;;16.90;74.60;;;;;;2259245;55;21042;-85
2023/10/30 04:28:00;;;;;;;0.88;0.30;;;17.00;74.70;;;;;;2485625;54;21863;-85
2023/10/30 04:30:26;;;;;;;1.30;0.32;;;16.90;74.50;;;;;;2258837;55;21109;-85
2023/10/30 04:32:53;;;;;;;0.52;0.20;;;16.90;74.30;;;;;;2486411;55;20935;-84
2023/10/30 04:35:19;;;;;;;0.60;0.30;;;16.90;74.30;;;;;;2488232;55;21625;-85
2023/10/30 04:37:45;;;;;;;0.45;0.20;;;16.90;74.40;;;;;;2258118;55;20954;-84
2023/10/30 04:40:12;;;;;;;0.37;0.20;;;16.90;74.50;;;;;;2258451;55;21068;-86
2023/10/30 04:42:38;;;;;;;1.37;0.30;;;16.80;74.50;;;;;;2259189;55;20969;-85
2023/10/30 04:45:05;;;;;;;0.30;0.15;;;16.90;74.70;;;;;;2258021;55;20981;-85
2023/10/30 04:47:31;;;;;;;0.47;0.28;;;16.80;74.80;;;;;;2258653;55;20982;-85
2023/10/30 04:49:57;;;;;;;1.05;0.30;;;16.80;74.70;;;;;;2486772;54;20939;-84
2023/10/30 04:52:25;;;;;;;1.95;0.65;;;16.80;74.70;;;;;;2258734;55;21001;-85
2023/10/30 04:54:51;;;;;;;1.45;0.30;;;16.80;74.80;;;;;;2487017;55;21070;-87
2023/10/30 04:57:18;;;;;;;1.67;0.50;;;16.80;74.70;;;;;;2257647;56;21053;-85
2023/10/30 04:59:44;;;;;;;0.55;0.30;;;16.80;74.70;;;;;;2258275;55;22427;-84
2023/10/30 05:02:10;;;;;;;1.40;0.50;;;16.80;74.90;;;;;;2257801;55;20978;-85
2023/10/30 05:04:37;;;;;;;0.98;0.40;;;16.80;75.00;;;;;;2487303;54;20934;-85
2023/10/30 05:07:03;;;;;;;0.85;0.20;;;16.80;75.10;;;;;;2486460;54;21339;-84
2023/10/30 05:09:29;;;;;;;0.82;0.30;;;16.80;75.20;;;;;;2258785;55;21022;-84
2023/10/30 05:11:56;;;;;;;0.68;0.30;;;17.00;75.30;;;;;;2258087;55;21779;-85
2023/10/30 05:14:22;;;;;;;0.40;0.25;;;16.80;75.10;;;;;;2487913;54;20966;-85
2023/10/30 05:16:48;;;;;;;0.45;0.20;;;16.80;75.20;;;;;;2258137;55;20951;-85
2023/10/30 05:19:14;;;;;;;0.35;0.30;;;16.80;75.10;;;;;;2258656;55;21045;-84
2023/10/30 05:21:41;;;;;;;1.45;0.40;;;16.80;75.20;;;;;;2487819;55;20963;-85
2023/10/30 05:24:07;;;;;;;0.65;0.32;;;16.80;75.20;;;;;;2258471;55;21083;-86
2023/10/30 05:26:33;;;;;;;1.10;0.50;;;16.80;75.20;;;;;;2485274;54;21044;-85
2023/10/30 05:29:00;;;;;;;2.03;0.30;;;16.80;75.10;;;;;;2484849;55;20953;-84
2023/10/30 05:31:26;;;;;;;1.05;0.40;;;16.80;75.10;;;;;;2487884;54;20943;-85
2023/10/30 05:33:52;;;;;;;0.90;0.22;;;16.80;75.10;;;;;;2259148;56;20986;-86
2023/10/30 05:36:19;;;;;;;0.73;0.30;;;16.90;75.10;;;;;;2487447;54;20979;-85
2023/10/30 05:38:45;;;;;;;0.77;0.30;;;16.90;75.20;;;;;;2487864;54;20962;-84
2023/10/30 05:41:11;;;;;;;0.70;0.30;;;16.80;75.00;;;;;;2488670;55;22008;-85
2023/10/30 05:43:38;;;;;;;1.02;0.30;;;16.80;75.00;;;;;;2259723;55;20978;-85
2023/10/30 05:46:04;;;;;;;1.02;0.40;;;16.80;74.90;;;;;;2258454;55;21030;-88
2023/10/30 05:48:30;;;;;;;1.37;0.50;;;16.90;75.00;;;;;;2488107;55;21030;-84
2023/10/30 05:50:56;;;;;;;3.62;0.80;;;16.80;74.90;;;;;;2259250;55;20962;-84
2023/10/30 05:53:23;;;;;;;2.60;1.10;;;16.80;74.80;;;;;;2487566;55;20973;-84
2023/10/30 05:55:49;;;;;;;6.93;1.55;;;16.80;74.70;;;;;;2259022;55;21011;-85
2023/10/30 05:58:16;;;;;;;3.33;0.93;;;16.80;74.80;;;;;;2258649;56;21573;-85
2023/10/30 06:00:43;;;;;;;2.60;1.15;;;16.80;74.60;;;;;;2260006;55;22131;-86
2023/10/30 06:03:09;;;;;;;2.83;1.15;;;16.80;74.40;;;;;;2487787;55;21031;-85
2023/10/30 06:05:36;;;;;;;4.30;1.83;;;16.80;74.30;;;;;;2487601;54;20995;-84
2023/10/30 06:08:02;;;;;;;2.53;0.98;;;16.70;74.20;;;;;;2258494;55;21949;-84
2023/10/30 06:10:28;;;;;;;2.22;0.90;;;16.70;74.20;;;;;;2488025;55;20996;-86
2023/10/30 06:12:55;;;;;;;2.67;1.10;;;16.70;74.20;;;;;;2258638;55;21517;-85
2023/10/30 06:15:21;;;;;;;3.00;1.00;;;16.70;74.30;;;;;;2259129;55;21034;-85
2023/10/30 06:17:47;;;;;;;2.00;0.93;;;16.70;74.30;;;;;;2487349;54;21014;-84
2023/10/30 06:20:14;;;;;;;2.47;0.90;;;16.70;74.20;;;;;;2258866;55;21511;-85
2023/10/30 06:22:40;;;;;;;2.20;0.90;;;16.60;74.00;;;;;;2487021;55;21037;-85
2023/10/30 06:25:06;;;;;;;3.60;1.08;;;16.60;73.90;;;;;;2259750;55;21038;-87
2023/10/30 06:27:33;;;;;;;2.20;1.00;;;16.60;73.90;;;;;;2487223;54;20978;-87
2023/10/30 06:29:59;;;;;;;2.97;1.50;;;16.50;73.70;;;;;;2487550;55;20962;-84
2023/10/30 06:32:25;;;;;;;2.97;1.37;;;16.50;73.80;;;;;;2258692;55;20947;-86
2023/10/30 06:34:53;;;;;;;3.03;1.50;;;16.50;73.90;;;;;;2488239;54;22044;-85
2023/10/30 06:37:20;;;;;;;3.03;1.20;;;16.40;74.00;;;;;;2237286;56;21002;-85
2023/10/30 06:39:46;;;;;;;4.80;1.20;;;16.40;74.00;;;;;;2487679;55;20942;-86
2023/10/30 06:42:12;;;;;;;2.42;0.90;;;16.40;74.00;;;;;;2258832;55;21067;-86
2023/10/30 06:44:38;;;;;;;2.37;0.90;;;16.40;74.10;;;;;;2487926;55;20948;-85
2023/10/30 06:47:05;;;;;;;2.37;0.80;;;16.40;74.20;;;;;;2259905;55;20983;-86
2023/10/30 06:49:32;;;;;;;2.87;1.02;;;16.30;74.00;;;;;;2489642;54;20923;-86
2023/10/30 06:51:58;;;;;;;1.58;0.82;;;16.30;74.10;;;;;;2490379;55;20978;-86
2023/10/30 06:54:24;;;;;;;1.25;0.65;;;16.30;74.20;;;;;;2261559;55;20926;-85
2023/10/30 06:56:50;;;;;;;2.22;0.73;;;16.30;74.20;;;;;;2489419;54;21467;-85
2023/10/30 06:59:17;;;;;;;1.50;0.70;;;16.30;74.20;;;;;;2260846;55;20938;-85
2023/10/30 07:01:44;;;;;;;1.87;0.80;;;16.20;74.20;;;;;;2261233;55;20995;-87
2023/10/30 07:04:11;;;;;;;2.47;0.95;;;16.20;74.30;;;;;;2260678;55;21007;-85
2023/10/30 07:06:41;;;;;;;2.70;0.90;;;16.20;74.30;;;;;;2489256;55;20982;-85
2023/10/30 07:09:08;;;;;;;1.90;0.88;;;16.20;74.30;;;;;;2260639;55;20930;-85
2023/10/30 07:11:37;;;;;;;2.40;1.30;;;16.20;74.50;;;;;;2489834;54;20934;-85
2023/10/30 07:14:04;;;;;;;3.03;1.35;;;16.20;74.50;;;;;;2261733;55;20922;-86
2023/10/30 07:16:30;;;;;;;2.60;1.40;;;16.20;74.60;;;;;;2489550;55;20981;-86
2023/10/30 07:18:57;;;;;;;3.20;1.58;;;16.20;74.70;;;;;;2260599;55;20986;-84
2023/10/30 07:21:24;;;;;;;2.95;1.45;;;16.20;74.70;;;;;;2261410;55;20942;-85
2023/10/30 07:23:50;;;;;;;2.65;1.45;;;16.20;74.80;;;;;;2261072;55;20907;-85
2023/10/30 07:26:17;;;;;;;4.43;1.73;;;16.20;74.90;;;;;;2261192;55;23039;-84
2023/10/30 07:28:43;;;;;;;3.45;1.30;;;16.20;75.00;;;;;;2260909;55;20939;-86
2023/10/30 07:31:10;;;;;;;4.68;1.92;;;16.20;75.00;;;;;;2490168;55;20943;-85
2023/10/30 07:33:36;;;;;;;3.40;1.62;;;16.20;75.20;;;;;;2489960;54;20995;-86
2023/10/30 07:36:03;;;;;;;5.03;1.58;;;16.20;75.20;;;;;;2490194;54;20958;-85
2023/10/30 07:38:29;;;;;;;3.47;1.52;;;16.30;75.40;;;;;;2488411;54;20903;-85
2023/10/30 07:40:55;;;;;;;3.15;1.40;;;16.30;75.50;;;;;;2489320;55;20911;-84
2023/10/30 07:43:22;;;;;;;2.53;1.23;;;16.30;75.60;;;;;;2489462;54;20923;-85
2023/10/30 07:45:49;;;;;;;2.60;1.15;;;16.30;75.70;;;;;;2262946;55;21443;-85
2023/10/30 07:48:15;;;;;;;3.05;1.62;;;16.40;75.80;;;;;;2259798;55;20950;-84
2023/10/30 07:50:42;;;;;;;2.42;1.20;;;16.40;75.80;;;;;;2263292;55;20977;-86
2023/10/30 07:53:08;;;;;;;2.42;1.30;;;16.50;76.00;;;;;;2489622;55;20958;-86
2023/10/30 07:55:36;;;;;;;3.55;1.27;;;16.50;76.00;;;;;;2262896;55;20970;-85
2023/10/30 07:58:06;;;;;;;2.42;1.20;;;16.50;76.10;;;;;;2489592;54;20926;-86
2023/10/30 08:00:32;;;;;;;2.45;1.20;;;16.50;76.10;;;;;;2490151;55;20927;-85
2023/10/30 08:03:03;;;;;;;1.98;1.00;;;16.50;76.30;;;;;;2260918;55;21001;-84
2023/10/30 08:05:30;;;;;;;1.95;0.80;;;16.60;76.40;;;;;;2489168;54;20986;-85
2023/10/30 08:07:57;;;;;;;2.50;1.00;;;16.60;76.40;;;;;;2260522;55;21800;-85
2023/10/30 08:10:23;;;;;;;2.33;1.08;;;16.70;76.60;;;;;;2260964;55;20990;-84
2023/10/30 08:12:49;;;;;;;2.33;1.00;;;16.80;76.70;;;;;;2487040;54;20910;-85
2023/10/30 08:15:15;;;;;;;2.12;1.00;;;16.80;76.70;;;;;;2259742;55;20978;-87
2023/10/30 08:17:42;;;;;;;2.75;1.10;;;16.80;76.70;;;;;;2488079;54;21712;-85
2023/10/30 08:20:09;;;;;;;2.37;0.90;;;16.80;76.60;;;;;;2489156;55;20914;-85
2023/10/30 08:22:36;;;;;;;2.55;1.10;;;16.90;76.70;;;;;;2487498;54;20970;-84
2023/10/30 08:25:02;;;;;;;1.75;0.80;;;16.90;76.70;;;;;;2260463;55;22006;-85
2023/10/30 08:27:29;;;;;;;2.28;0.90;;;17.00;76.80;;;;;;2488656;55;20991;-86
2023/10/30 08:29:56;;;;;;;2.55;0.90;;;17.00;76.80;;;;;;2487991;55;20935;-86
2023/10/30 08:32:22;;;;;;;2.28;0.90;;;17.00;76.70;;;;;;2259581;55;20943;-87
2023/10/30 08:34:48;;;;;;;1.67;0.80;;;17.10;76.80;;;;;;2260048;55;21729;-87
2023/10/30 08:37:14;;;;;;;1.45;0.70;;;17.10;76.70;;;;;;2488031;55;20947;-85
2023/10/30 08:39:41;;;;;;;1.70;0.77;;;17.20;76.80;;;;;;2483980;54;20940;-85
2023/10/30 08:42:08;;;;;;;3.40;1.00;;;17.20;76.90;;;;;;2489341;55;20915;-85
2023/10/30 08:44:34;;;;;;;2.58;0.70;;;17.20;76.90;;;;;;2261121;55;20930;-85
2023/10/30 08:47:00;;;;;;;2.37;1.00;;;17.30;76.90;;;;;;2488966;54;21024;-85
2023/10/30 08:49:26;;;;;;;2.62;0.90;;;17.30;76.90;;;;;;2488847;55;20974;-85
2023/10/30 08:51:53;;;;;;;1.80;0.80;;;17.40;77.00;;;;;;2488899;55;20938;-85
2023/10/30 08:54:26;;;;;;;2.30;1.15;;;17.40;77.00;;;;;;2489073;55;21070;-86
2023/10/30 08:56:53;;;;;;;2.20;1.05;;;17.40;76.90;;;;;;2488361;54;20982;-86
2023/10/30 08:59:21;;;;;;;4.45;1.33;;;17.50;77.00;;;;;;2487306;55;20959;-85
2023/10/30 09:01:48;;;;;;;2.50;1.10;;;17.50;77.00;;;;;;2259147;55;21022;-86
2023/10/30 09:04:14;;;;;;;4.85;1.20;;;17.50;77.00;;;;;;2258621;55;21050;-87
2023/10/30 09:06:42;;;;;;;2.67;1.05;;;17.60;77.00;;;;;;2485285;54;20970;-84
2023/10/30 09:09:09;;;;;;;2.37;1.10;;;17.60;77.00;;;;;;2487307;54;21914;-85
2023/10/30 09:11:35;;;;;;;4.25;1.40;;;17.60;77.00;;;;;;2456899;55;21010;-85
2023/10/30 09:14:01;;;;;;;3.87;1.08;;;17.60;77.10;;;;;;2486958;55;21546;-85
2023/10/30 09:16:27;;;;;;;2.58;1.30;;;17.70;77.20;;;;;;2258455;55;20997;-84
2023/10/30 09:18:54;;;;;;;2.85;1.08;;;17.70;77.20;;;;;;2258258;55;20938;-84
2023/10/30 09:21:21;;;;;;;2.20;1.10;;;17.70;77.30;;;;;;2486512;55;21053;-87
2023/10/30 09:23:47;;;;;;;3.25;1.30;;;17.80;77.40;;;;;;2258330;55;21051;-86
2023/10/30 09:26:14;;;;;;;4.75;1.27;;;17.80;77.40;;;;;;2259315;55;21525;-86
2023/10/30 09:28:41;;;;;;;2.83;1.20;;;17.80;77.20;;;;;;2257077;55;21030;-85
2023/10/30 09:31:07;;;;;;;2.35;1.40;;;17.90;77.00;;;;;;2258917;55;21767;-86
2023/10/30 09:33:34;;;;;;;2.50;1.20;;;17.90;76.90;;;;;;2258260;55;20959;-86
2023/10/30 09:36:00;;;;;;;3.85;1.50;;;17.90;76.80;;;;;;2486553;55;20959;-87
2023/10/30 09:38:26;;;;;;;2.03;0.75;;;18.00;76.80;;;;;;2486081;54;21074;-84
2023/10/30 09:41:03;;;;;;;2.35;1.08;;;18.00;76.80;;;;;;2257644;55;20951;-84
2023/10/30 09:43:29;;;;;;;2.92;1.08;;;18.00;76.50;;;;;;2487214;54;20930;-85
2023/10/30 09:45:59;;;;;;;4.25;1.33;;;18.10;76.80;;;;;;2486981;55;20963;-87
2023/10/30 09:48:28;;;;;;;2.42;1.00;;;18.10;76.60;;;;;;2486591;54;20990;-87
2023/10/30 09:50:56;;;;;;;2.90;1.20;;;18.10;76.60;;;;;;2486927;55;21931;-85
2023/10/30 09:53:22;;;;;;;2.40;1.10;;;18.10;76.60;;;;;;2487471;55;21030;-87
2023/10/30 09:55:49;;;;;;;2.05;1.10;;;18.20;76.80;;;;;;2258836;55;20985;-89
2023/10/30 09:58:15;;;;;;;2.70;1.05;;;18.20;76.70;;;;;;2259254;55;20938;-87
2023/10/30 10:00:45;;;;;;;2.37;1.00;;;18.20;76.70;;;;;;2486126;54;21551;-85
2023/10/30 10:03:12;;;;;;;2.60;1.37;;;18.20;76.60;;;;;;2257967;56;21244;-86
2023/10/30 10:05:38;;;;;;;2.87;1.30;;;18.20;76.70;;;;;;2486513;55;20998;-87
2023/10/30 10:08:05;;;;;;;2.42;1.25;;;18.30;76.80;;;;;;2485985;54;20954;-89
2023/10/30 10:11:07;;;;;;;2.62;1.30;;;18.30;76.70;;;;;;2487033;55;21038;-86
2023/10/30 10:13:33;;;;;;;2.60;1.35;;;18.40;76.00;;;;;;2487608;55;20989;-87
2023/10/30 10:16:00;;;;;;;2.20;1.00;;;18.40;76.80;;;;;;2486659;54;21054;-87
2023/10/30 10:18:31;;;;;;;2.90;1.25;;;18.40;76.90;;;;;;2258106;55;21172;-86
2023/10/30 10:21:05;;;;;;;2.87;1.23;;;18.40;77.00;;;;;;2486596;55;20994;-89
2023/10/30 10:23:33;;;;;;;2.25;1.10;;;18.50;77.00;;;;;;2487268;55;21069;-86
2023/10/30 10:26:00;;;;;;;2.62;1.00;;;18.50;77.00;;;;;;2487159;55;21473;-86
2023/10/30 10:28:26;;;;;;;3.25;1.10;;;18.50;76.80;;;;;;2258345;55;20974;-87
2023/10/30 10:30:53;;;;;;;1.67;0.85;;;18.40;76.80;;;;;;2258976;55;21113;-89
2023/10/30 10:33:27;;;;;;;2.20;0.90;;;18.60;77.00;;;;;;2258888;55;20966;-87
2023/10/30 10:35:57;;;;;;;2.67;0.85;;;18.70;76.90;;;;;;2258462;55;20941;-85
2023/10/30 10:38:24;;;;;;;2.33;0.80;;;18.70;77.00;;;;;;2258422;55;21070;-86
2023/10/30 10:40:50;;;;;;;2.20;1.20;;;18.70;77.10;;;;;;2257980;55;21024;-87
2023/10/30 10:43:21;;;;;;;2.22;1.10;;;18.70;77.00;;;;;;2258349;55;21940;-88
2023/10/30 10:45:51;;;;;;;2.30;1.05;;;18.80;77.10;;;;;;2486207;54;21002;-86
2023/10/30 10:48:18;;;;;;;2.20;1.05;;;18.80;76.70;;;;;;2258567;55;21025;-87
2023/10/30 10:50:45;;;;;;;2.95;1.10;;;18.80;76.60;;;;;;2486398;55;22067;-87
2023/10/30 10:53:11;;;;;;;2.85;1.58;;;18.90;76.70;;;;;;2259091;55;20999;-88
2023/10/30 10:55:45;;;;;;;1.83;1.00;;;18.90;76.30;;;;;;2258532;55;20943;-87
2023/10/30 10:58:23;;;;;;;3.25;1.20;;;18.90;75.90;;;;;;2258633;55;21005;-88
2023/10/30 11:00:51;;;;;;;3.03;1.37;;;18.90;76.20;;;;;;2487132;55;21303;-85
2023/10/30 11:03:18;;;;;;;2.55;1.27;;;18.90;76.00;;;;;;2260691;55;20988;-84
2023/10/30 11:05:46;;;;;;;2.25;0.90;;;18.90;75.90;;;;;;2481691;55;21018;-85
2023/10/30 11:08:39;;;;;;;1.90;0.93;;;18.90;75.70;;;;;;2258457;55;21151;-85
2023/10/30 11:11:17;;;;;;;1.75;0.80;;;18.90;75.10;;;;;;2261388;55;21045;-84
2023/10/30 11:14:04;;;;;;;2.28;0.90;;;19.00;75.40;;;;;;2482835;55;20962;-85
2023/10/30 11:16:36;;;;;;;2.40;0.77;;;18.90;75.50;;;;;;2261370;55;21025;-85
2023/10/30 11:19:02;;;;;;;1.58;0.70;;;18.90;75.50;;;;;;2261573;55;20974;-85
2023/10/30 11:21:29;;;;;;;1.50;0.80;;;18.90;75.70;;;;;;2489660;55;20935;-86
2023/10/30 11:23:56;;;;;;;2.00;0.80;;;18.90;75.70;;;;;;2260567;55;20915;-85
2023/10/30 11:26:39;;;;;;;3.33;1.70;;;18.90;75.70;;;;;;2261002;55;21005;-85
2023/10/30 11:29:16;;;;;;;3.97;2.47;;;18.90;75.10;;;;;;2260201;55;21475;-85
2023/10/30 11:34:23;;;;;;;4.05;2.53;;;19.00;75.50;;;;;;2260473;55;20927;-86
2023/10/30 11:36:50;;;;;;;2.85;1.40;;;19.00;74.60;;;;;;2489428;55;20895;-85
2023/10/30 11:39:20;;;;;;;2.70;1.40;;;19.00;75.40;;;;;;2488602;55;21012;-87
2023/10/30 11:41:50;;;;;;;2.37;1.35;;;18.90;75.30;;;;;;2484932;54;20996;-85
2023/10/30 11:44:16;;;;;;;2.25;1.02;;;18.90;75.50;;;;;;2488084;55;21043;-85
2023/10/30 11:46:48;;;;;;;2.42;0.93;;;18.90;75.70;;;;;;2486391;54;21017;-85
2023/10/30 11:49:15;;;;;;;2.10;1.00;;;18.90;75.60;;;;;;2482704;54;20949;-86
2023/10/30 11:51:42;;;;;;;1.85;0.90;;;19.00;76.70;;;;;;2487096;55;20954;-86
2023/10/30 11:54:08;;;;;;;2.65;0.95;;;18.90;75.90;;;;;;2259892;55;20993;-86
2023/10/30 11:56:35;;;;;;;2.30;1.20;;;18.90;75.90;;;;;;2487281;54;21045;-85
2023/10/30 11:59:02;;;;;;;2.37;1.15;;;18.70;75.60;;;;;;2258840;55;20983;-84
2023/10/30 12:01:32;;;;;;;2.33;0.98;;;19.00;76.00;;;;;;2487862;54;21017;-87
2023/10/30 12:03:59;;;;;;;2.28;0.80;;;19.00;76.00;;;;;;2487547;54;21209;-85
2023/10/30 12:06:26;;;;;;;2.03;0.90;;;19.00;76.10;;;;;;2258499;55;20942;-86
2023/10/30 12:08:52;;;;;;;1.70;0.90;;;19.00;76.10;;;;;;2258433;55;21444;-85
2023/10/30 12:11:19;;;;;;;1.90;0.90;;;19.00;76.10;;;;;;2487238;55;21030;-85
2023/10/30 12:13:47;;;;;;;2.20;1.12;;;19.00;76.10;;;;;;2259294;55;21134;-86
2023/10/30 12:16:14;;;;;;;2.78;1.33;;;19.00;76.10;;;;;;2259055;56;21857;-85
2023/10/30 12:18:40;;;;;;;2.50;1.00;;;19.00;76.00;;;;;;2258636;55;20963;-85
2023/10/30 12:21:06;;;;;;;2.08;1.00;;;19.10;76.00;;;;;;2259589;55;20958;-85
2023/10/30 12:23:33;;;;;;;2.47;1.20;;;19.10;75.90;;;;;;2487102;55;20972;-85
2023/10/30 12:26:05;;;;;;;2.12;0.90;;;19.20;76.00;;;;;;2487373;55;20927;-84
2023/10/30 12:28:37;;;;;;;1.90;1.00;;;19.10;75.60;;;;;;2486952;54;20967;-86
2023/10/30 12:31:20;;;;;;;5.22;1.10;;;19.10;75.50;;;;;;2259293;55;21026;-86
2023/10/30 12:33:47;;;;;;;2.75;1.30;;;19.20;75.30;;;;;;2487318;55;21003;-86
2023/10/30 12:36:13;;;;;;;3.25;1.10;;;19.20;76.10;;;;;;2487429;55;21026;-88
2023/10/30 12:38:40;;;;;;;2.45;1.27;;;19.20;76.10;;;;;;2486893;54;20953;-86
2023/10/30 12:41:07;;;;;;;2.85;1.23;;;19.20;76.00;;;;;;2487932;55;20950;-87
2023/10/30 12:43:37;;;;;;;2.87;1.60;;;19.20;75.80;;;;;;2487943;55;20950;-85
2023/10/30 12:46:05;;;;;;;2.55;1.42;;;19.20;75.70;;;;;;2258358;55;21086;-85
2023/10/30 12:48:32;;;;;;;5.68;2.28;;;19.30;75.80;;;;;;2487508;54;21053;-85
2023/10/30 12:50:58;;;;;;;2.60;1.30;;;19.20;75.60;;;;;;2258500;55;20934;-86